sensor_id;sensor_type;location;lat;lon;timestamp;pressure;altitude;pressure_sealevel;temperature
67501;BMP180;54349;52.528;19.760;2022-07-11T00:01:26;100612.20;;;22.40
67501;BMP180;54349;52.528;19.760;2022-07-11T00:03:55;100613.40;;;22.50
67501;BMP180;54349;52.528;19.760;2022-07-11T00:06:23;100605.20;;;22.30
67501;BMP180;54349;52.528;19.760;2022-07-11T00:08:51;100602.60;;;22.24
67501;BMP180;54349;52.528;19.760;2022-07-11T00:11:20;100599.60;;;22.30
67501;BMP180;54349;52.528;19.760;2022-07-11T00:13:48;100601.80;;;22.40
67501;BMP180;54349;52.528;19.760;2022-07-11T00:16:16;100602.20;;;22.30
67501;BMP180;54349;52.528;19.760;2022-07-11T00:18:44;100593.80;;;22.14
67501;BMP180;54349;52.528;19.760;2022-07-11T00:21:12;100589.00;;;22.20
67501;BMP180;54349;52.528;19.760;2022-07-11T00:23:40;100588.80;;;22.30
67501;BMP180;54349;52.528;19.760;2022-07-11T00:26:09;100580.60;;;22.38
67501;BMP180;54349;52.528;19.760;2022-07-11T00:28:38;100577.20;;;22.10
67501;BMP180;54349;52.528;19.760;2022-07-11T00:31:06;100573.60;;;22.10
67501;BMP180;54349;52.528;19.760;2022-07-11T00:33:37;100583.60;;;22.20
67501;BMP180;54349;52.528;19.760;2022-07-11T00:36:06;100583.20;;;22.30
67501;BMP180;54349;52.528;19.760;2022-07-11T00:38:35;100582.60;;;22.30
67501;BMP180;54349;52.528;19.760;2022-07-11T00:41:03;100578.40;;;22.10
67501;BMP180;54349;52.528;19.760;2022-07-11T00:43:37;100584.80;;;22.20
67501;BMP180;54349;52.528;19.760;2022-07-11T00:46:08;100578.40;;;22.20
67501;BMP180;54349;52.528;19.760;2022-07-11T00:48:36;100575.00;;;22.30
67501;BMP180;54349;52.528;19.760;2022-07-11T00:51:05;100572.80;;;22.10
67501;BMP180;54349;52.528;19.760;2022-07-11T00:53:35;100570.80;;;22.10
67501;BMP180;54349;52.528;19.760;2022-07-11T00:56:04;100565.40;;;22.12
67501;BMP180;54349;52.528;19.760;2022-07-11T00:58:35;100574.00;;;22.20
67501;BMP180;54349;52.528;19.760;2022-07-11T01:01:04;100566.40;;;22.28
67501;BMP180;54349;52.528;19.760;2022-07-11T01:03:35;100567.60;;;22.08
67501;BMP180;54349;52.528;19.760;2022-07-11T01:06:04;100567.80;;;22.10
67501;BMP180;54349;52.528;19.760;2022-07-11T01:08:34;100570.80;;;22.20
67501;BMP180;54349;52.528;19.760;2022-07-11T01:11:07;100571.80;;;22.20
67501;BMP180;54349;52.528;19.760;2022-07-11T01:13:40;100569.00;;;22.12
67501;BMP180;54349;52.528;19.760;2022-07-11T01:16:18;100571.40;;;22.00
67501;BMP180;54349;52.528;19.760;2022-07-11T01:18:51;100565.00;;;22.10
67501;BMP180;54349;52.528;19.760;2022-07-11T01:23:56;100572.00;;;22.20
67501;BMP180;54349;52.528;19.760;2022-07-11T01:26:26;100567.00;;;22.00
67501;BMP180;54349;52.528;19.760;2022-07-11T01:28:56;100567.80;;;22.00
67501;BMP180;54349;52.528;19.760;2022-07-11T01:31:32;100564.60;;;22.04
67501;BMP180;54349;52.528;19.760;2022-07-11T01:34:01;100562.60;;;22.10
67501;BMP180;54349;52.528;19.760;2022-07-11T01:36:29;100563.80;;;22.20
67501;BMP180;54349;52.528;19.760;2022-07-11T01:38:57;100560.80;;;21.92
67501;BMP180;54349;52.528;19.760;2022-07-11T01:41:26;100562.40;;;21.90
67501;BMP180;54349;52.528;19.760;2022-07-11T01:43:54;100560.20;;;22.00
67501;BMP180;54349;52.528;19.760;2022-07-11T01:46:22;100556.80;;;22.10
67501;BMP180;54349;52.528;19.760;2022-07-11T01:48:51;100556.80;;;22.20
67501;BMP180;54349;52.528;19.760;2022-07-11T01:51:19;100548.40;;;22.00
67501;BMP180;54349;52.528;19.760;2022-07-11T01:53:47;100547.40;;;21.90
67501;BMP180;54349;52.528;19.760;2022-07-11T01:56:16;100549.60;;;22.00
67501;BMP180;54349;52.528;19.760;2022-07-11T01:58:48;100544.40;;;22.10
67501;BMP180;54349;52.528;19.760;2022-07-11T02:01:23;100546.80;;;22.10
67501;BMP180;54349;52.528;19.760;2022-07-11T02:03:52;100549.20;;;22.00
67501;BMP180;54349;52.528;19.760;2022-07-11T02:06:21;100543.80;;;21.90
67501;BMP180;54349;52.528;19.760;2022-07-11T02:08:50;100546.40;;;22.00
67501;BMP180;54349;52.528;19.760;2022-07-11T02:11:18;100544.80;;;22.10
67501;BMP180;54349;52.528;19.760;2022-07-11T02:13:46;100558.00;;;22.10
67501;BMP180;54349;52.528;19.760;2022-07-11T02:16:15;100561.60;;;22.10
67501;BMP180;54349;52.528;19.760;2022-07-11T02:18:43;100553.80;;;21.90
67501;BMP180;54349;52.528;19.760;2022-07-11T02:21:12;100553.00;;;22.00
67501;BMP180;54349;52.528;19.760;2022-07-11T02:23:40;100561.60;;;22.00
67501;BMP180;54349;52.528;19.760;2022-07-11T02:26:09;100566.60;;;22.10
67501;BMP180;54349;52.528;19.760;2022-07-11T02:28:37;100561.60;;;22.10
67501;BMP180;54349;52.528;19.760;2022-07-11T02:31:05;100557.40;;;21.90
67501;BMP180;54349;52.528;19.760;2022-07-11T02:33:34;100538.00;;;21.90
67501;BMP180;54349;52.528;19.760;2022-07-11T02:36:02;100555.80;;;22.00
67501;BMP180;54349;52.528;19.760;2022-07-11T02:38:30;100550.80;;;22.06
67501;BMP180;54349;52.528;19.760;2022-07-11T02:40:58;100548.00;;;22.10
67501;BMP180;54349;52.528;19.760;2022-07-11T02:43:27;100539.40;;;22.00
67501;BMP180;54349;52.528;19.760;2022-07-11T02:45:56;100537.40;;;21.90
67501;BMP180;54349;52.528;19.760;2022-07-11T02:48:24;100537.40;;;21.90
67501;BMP180;54349;52.528;19.760;2022-07-11T02:50:53;100528.80;;;22.00
67501;BMP180;54349;52.528;19.760;2022-07-11T02:53:22;100523.80;;;22.10
67501;BMP180;54349;52.528;19.760;2022-07-11T02:55:50;100528.00;;;22.10
67501;BMP180;54349;52.528;19.760;2022-07-11T02:58:18;100531.00;;;21.90
67501;BMP180;54349;52.528;19.760;2022-07-11T03:00:46;100526.20;;;21.90
67501;BMP180;54349;52.528;19.760;2022-07-11T03:03:14;100525.20;;;21.92
67501;BMP180;54349;52.528;19.760;2022-07-11T03:05:42;100524.20;;;22.00
67501;BMP180;54349;52.528;19.760;2022-07-11T03:08:12;100523.60;;;22.10
67501;BMP180;54349;52.528;19.760;2022-07-11T03:10:40;100525.60;;;22.02
67501;BMP180;54349;52.528;19.760;2022-07-11T03:13:08;100527.40;;;21.82
67501;BMP180;54349;52.528;19.760;2022-07-11T03:15:37;100526.20;;;21.90
67501;BMP180;54349;52.528;19.760;2022-07-11T03:18:05;100518.40;;;21.98
67501;BMP180;54349;52.528;19.760;2022-07-11T03:20:33;100514.60;;;22.00
67501;BMP180;54349;52.528;19.760;2022-07-11T03:23:01;100504.40;;;22.10
67501;BMP180;54349;52.528;19.760;2022-07-11T03:25:29;100501.80;;;22.00
67501;BMP180;54349;52.528;19.760;2022-07-11T03:27:58;100501.80;;;21.80
67501;BMP180;54349;52.528;19.760;2022-07-11T03:30:26;100495.60;;;21.90
67501;BMP180;54349;52.528;19.760;2022-07-11T03:32:54;100503.40;;;21.90
67501;BMP180;54349;52.528;19.760;2022-07-11T03:35:22;100500.00;;;22.00
67501;BMP180;54349;52.528;19.760;2022-07-11T03:38:10;100492.80;;;22.06
67501;BMP180;54349;52.528;19.760;2022-07-11T03:40:39;100491.20;;;21.80
67501;BMP180;54349;52.528;19.760;2022-07-11T03:43:09;100497.20;;;21.80
67501;BMP180;54349;52.528;19.760;2022-07-11T03:45:38;100503.00;;;21.90
67501;BMP180;54349;52.528;19.760;2022-07-11T03:48:07;100510.20;;;21.94
67501;BMP180;54349;52.528;19.760;2022-07-11T03:50:35;100518.40;;;22.00
67501;BMP180;54349;52.528;19.760;2022-07-11T03:53:04;100522.20;;;21.90
67501;BMP180;54349;52.528;19.760;2022-07-11T03:55:32;100521.80;;;21.80
67501;BMP180;54349;52.528;19.760;2022-07-11T03:58:02;100515.80;;;21.80
67501;BMP180;54349;52.528;19.760;2022-07-11T04:00:30;100519.80;;;21.90
67501;BMP180;54349;52.528;19.760;2022-07-11T04:02:59;100524.40;;;21.94
67501;BMP180;54349;52.528;19.760;2022-07-11T04:05:28;100526.00;;;22.00
67501;BMP180;54349;52.528;19.760;2022-07-11T04:07:57;100528.20;;;22.00
67501;BMP180;54349;52.528;19.760;2022-07-11T04:10:26;100529.20;;;21.80
67501;BMP180;54349;52.528;19.760;2022-07-11T04:12:54;100532.80;;;21.80
67501;BMP180;54349;52.528;19.760;2022-07-11T04:15:23;100542.60;;;21.90
67501;BMP180;54349;52.528;19.760;2022-07-11T04:17:51;100541.80;;;21.90
67501;BMP180;54349;52.528;19.760;2022-07-11T04:20:19;100541.80;;;22.00
67501;BMP180;54349;52.528;19.760;2022-07-11T04:22:48;100544.40;;;22.00
67501;BMP180;54349;52.528;19.760;2022-07-11T04:25:17;100540.80;;;21.78
67501;BMP180;54349;52.528;19.760;2022-07-11T04:27:45;100540.00;;;21.80
67501;BMP180;54349;52.528;19.760;2022-07-11T04:30:13;100545.00;;;21.80
67501;BMP180;54349;52.528;19.760;2022-07-11T04:32:41;100544.60;;;21.90
67501;BMP180;54349;52.528;19.760;2022-07-11T04:35:09;100551.00;;;22.00
67501;BMP180;54349;52.528;19.760;2022-07-11T04:37:37;100552.60;;;21.76
67501;BMP180;54349;52.528;19.760;2022-07-11T04:40:06;100550.20;;;21.70
67501;BMP180;54349;52.528;19.760;2022-07-11T04:42:40;100549.20;;;21.80
67501;BMP180;54349;52.528;19.760;2022-07-11T04:45:09;100555.80;;;21.90
67501;BMP180;54349;52.528;19.760;2022-07-11T04:47:37;100554.60;;;21.90
67501;BMP180;54349;52.528;19.760;2022-07-11T04:50:06;100555.80;;;21.90
67501;BMP180;54349;52.528;19.760;2022-07-11T04:52:34;100552.20;;;21.70
67501;BMP180;54349;52.528;19.760;2022-07-11T04:55:04;100551.80;;;21.78
67501;BMP180;54349;52.528;19.760;2022-07-11T04:57:32;100548.60;;;21.80
67501;BMP180;54349;52.528;19.760;2022-07-11T05:00:01;100556.60;;;21.90
67501;BMP180;54349;52.528;19.760;2022-07-11T05:02:29;100558.40;;;21.96
67501;BMP180;54349;52.528;19.760;2022-07-11T05:04:58;100560.00;;;21.92
67501;BMP180;54349;52.528;19.760;2022-07-11T05:07:26;100564.40;;;21.72
67501;BMP180;54349;52.528;19.760;2022-07-11T05:09:54;100566.20;;;21.80
67501;BMP180;54349;52.528;19.760;2022-07-11T05:12:23;100570.60;;;21.84
67501;BMP180;54349;52.528;19.760;2022-07-11T05:14:51;100573.00;;;21.90
67501;BMP180;54349;52.528;19.760;2022-07-11T05:17:19;100572.40;;;22.00
67501;BMP180;54349;52.528;19.760;2022-07-11T05:19:47;100568.60;;;21.90
67501;BMP180;54349;52.528;19.760;2022-07-11T05:22:15;100573.20;;;21.78
67501;BMP180;54349;52.528;19.760;2022-07-11T05:24:44;100571.00;;;21.80
67501;BMP180;54349;52.528;19.760;2022-07-11T05:27:13;100575.60;;;21.90
67501;BMP180;54349;52.528;19.760;2022-07-11T05:29:41;100575.20;;;21.94
67501;BMP180;54349;52.528;19.760;2022-07-11T05:32:09;100576.40;;;22.00
67501;BMP180;54349;52.528;19.760;2022-07-11T05:34:38;100569.00;;;21.90
67501;BMP180;54349;52.528;19.760;2022-07-11T05:37:07;100568.60;;;21.80
67501;BMP180;54349;52.528;19.760;2022-07-11T05:39:35;100574.80;;;21.82
67501;BMP180;54349;52.528;19.760;2022-07-11T05:42:04;100572.20;;;21.90
67501;BMP180;54349;52.528;19.760;2022-07-11T05:44:33;100571.40;;;22.00
67501;BMP180;54349;52.528;19.760;2022-07-11T05:47:02;100568.60;;;22.00
67501;BMP180;54349;52.528;19.760;2022-07-11T05:49:31;100571.20;;;21.80
67501;BMP180;54349;52.528;19.760;2022-07-11T05:52:00;100569.80;;;21.80
67501;BMP180;54349;52.528;19.760;2022-07-11T05:54:29;100576.80;;;21.90
67501;BMP180;54349;52.528;19.760;2022-07-11T05:56:57;100580.40;;;21.98
67501;BMP180;54349;52.528;19.760;2022-07-11T05:59:26;100583.40;;;22.00
67501;BMP180;54349;52.528;19.760;2022-07-11T06:01:54;100581.00;;;22.10
67501;BMP180;54349;52.528;19.760;2022-07-11T06:04:23;100579.20;;;21.88
67501;BMP180;54349;52.528;19.760;2022-07-11T06:06:51;100586.00;;;21.90
67501;BMP180;54349;52.528;19.760;2022-07-11T06:09:20;100591.00;;;22.00
67501;BMP180;54349;52.528;19.760;2022-07-11T06:11:48;100590.20;;;22.10
67501;BMP180;54349;52.528;19.760;2022-07-11T06:14:18;100595.60;;;22.18
67501;BMP180;54349;52.528;19.760;2022-07-11T06:16:46;100595.60;;;21.96
67501;BMP180;54349;52.528;19.760;2022-07-11T06:19:15;100591.40;;;21.90
67501;BMP180;54349;52.528;19.760;2022-07-11T06:21:43;100591.20;;;22.00
67501;BMP180;54349;52.528;19.760;2022-07-11T06:24:12;100589.80;;;22.10
67501;BMP180;54349;52.528;19.760;2022-07-11T06:26:40;100593.20;;;22.20
67501;BMP180;54349;52.528;19.760;2022-07-11T06:29:08;100594.40;;;22.00
67501;BMP180;54349;52.528;19.760;2022-07-11T06:31:37;100592.20;;;22.00
67501;BMP180;54349;52.528;19.760;2022-07-11T06:34:05;100591.40;;;22.10
67501;BMP180;54349;52.528;19.760;2022-07-11T06:36:34;100595.20;;;22.20
67501;BMP180;54349;52.528;19.760;2022-07-11T06:39:03;100598.20;;;22.20
67501;BMP180;54349;52.528;19.760;2022-07-11T06:41:31;100598.00;;;22.10
67501;BMP180;54349;52.528;19.760;2022-07-11T06:43:59;100602.60;;;22.20
67501;BMP180;54349;52.528;19.760;2022-07-11T06:46:27;100598.80;;;22.30
67501;BMP180;54349;52.528;19.760;2022-07-11T06:48:56;100602.20;;;22.30
67501;BMP180;54349;52.528;19.760;2022-07-11T06:51:24;100604.00;;;22.20
67501;BMP180;54349;52.528;19.760;2022-07-11T06:53:53;100602.80;;;22.22
67501;BMP180;54349;52.528;19.760;2022-07-11T06:56:21;100601.80;;;22.40
67501;BMP180;54349;52.528;19.760;2022-07-11T06:58:49;100596.40;;;22.40
67501;BMP180;54349;52.528;19.760;2022-07-11T07:01:17;100604.40;;;22.26
67501;BMP180;54349;52.528;19.760;2022-07-11T07:03:46;100604.40;;;22.30
67501;BMP180;54349;52.528;19.760;2022-07-11T07:06:16;100606.20;;;22.40
67501;BMP180;54349;52.528;19.760;2022-07-11T07:08:44;100608.40;;;22.50
67501;BMP180;54349;52.528;19.760;2022-07-11T07:11:13;100608.00;;;22.30
67501;BMP180;54349;52.528;19.760;2022-07-11T07:13:42;100611.20;;;22.40
67501;BMP180;54349;52.528;19.760;2022-07-11T07:16:11;100615.40;;;22.50
67501;BMP180;54349;52.528;19.760;2022-07-11T07:18:39;100616.80;;;22.60
67501;BMP180;54349;52.528;19.760;2022-07-11T07:21:11;100618.20;;;22.40
67501;BMP180;54349;52.528;19.760;2022-07-11T07:23:40;100614.80;;;22.40
67501;BMP180;54349;52.528;19.760;2022-07-11T07:26:08;100615.80;;;22.50
67501;BMP180;54349;52.528;19.760;2022-07-11T07:28:36;100618.60;;;22.60
67501;BMP180;54349;52.528;19.760;2022-07-11T07:31:06;100620.60;;;22.48
67501;BMP180;54349;52.528;19.760;2022-07-11T07:33:43;100617.00;;;22.40
67501;BMP180;54349;52.528;19.760;2022-07-11T07:36:14;100619.20;;;22.50
67501;BMP180;54349;52.528;19.760;2022-07-11T07:38:44;100620.80;;;22.66
67501;BMP180;54349;52.528;19.760;2022-07-11T07:41:15;100619.60;;;22.50
67501;BMP180;54349;52.528;19.760;2022-07-11T07:43:44;100620.00;;;22.40
67501;BMP180;54349;52.528;19.760;2022-07-11T07:46:13;100613.20;;;22.50
67501;BMP180;54349;52.528;19.760;2022-07-11T07:48:42;100614.60;;;22.62
67501;BMP180;54349;52.528;19.760;2022-07-11T07:51:11;100613.20;;;22.50
67501;BMP180;54349;52.528;19.760;2022-07-11T07:53:39;100613.80;;;22.40
67501;BMP180;54349;52.528;19.760;2022-07-11T07:56:07;100613.60;;;22.50
67501;BMP180;54349;52.528;19.760;2022-07-11T07:58:36;100606.80;;;22.64
67501;BMP180;54349;52.528;19.760;2022-07-11T08:01:05;100606.20;;;22.50
67501;BMP180;54349;52.528;19.760;2022-07-11T08:03:53;100603.20;;;22.32
67501;BMP180;54349;52.528;19.760;2022-07-11T08:06:22;100609.00;;;22.46
67501;BMP180;54349;52.528;19.760;2022-07-11T08:08:51;100606.20;;;22.60
67501;BMP180;54349;52.528;19.760;2022-07-11T08:11:19;100611.00;;;22.54
67501;BMP180;54349;52.528;19.760;2022-07-11T08:13:59;100615.20;;;22.30
67501;BMP180;54349;52.528;19.760;2022-07-11T08:16:29;100610.60;;;22.30
67501;BMP180;54349;52.528;19.760;2022-07-11T08:19:01;100614.20;;;22.42
67501;BMP180;54349;52.528;19.760;2022-07-11T08:21:31;100619.80;;;22.60
67501;BMP180;54349;52.528;19.760;2022-07-11T08:24:00;100617.40;;;22.50
67501;BMP180;54349;52.528;19.760;2022-07-11T08:26:29;100610.20;;;22.30
67501;BMP180;54349;52.528;19.760;2022-07-11T08:29:03;100608.60;;;22.40
67501;BMP180;54349;52.528;19.760;2022-07-11T08:31:32;100609.00;;;22.50
67501;BMP180;54349;52.528;19.760;2022-07-11T08:34:01;100604.80;;;22.60
67501;BMP180;54349;52.528;19.760;2022-07-11T08:36:30;100604.60;;;22.40
67501;BMP180;54349;52.528;19.760;2022-07-11T08:39:03;100600.60;;;22.40
67501;BMP180;54349;52.528;19.760;2022-07-11T08:41:32;100608.40;;;22.50
67501;BMP180;54349;52.528;19.760;2022-07-11T08:44:06;100600.20;;;22.60
67501;BMP180;54349;52.528;19.760;2022-07-11T08:46:39;100600.40;;;22.50
67501;BMP180;54349;52.528;19.760;2022-07-11T08:49:12;100601.00;;;22.34
67501;BMP180;54349;52.528;19.760;2022-07-11T08:51:43;100598.40;;;22.30
67501;BMP180;54349;52.528;19.760;2022-07-11T08:54:13;100604.20;;;22.40
67501;BMP180;54349;52.528;19.760;2022-07-11T08:56:49;100598.20;;;22.60
67501;BMP180;54349;52.528;19.760;2022-07-11T08:59:25;100592.20;;;22.50
67501;BMP180;54349;52.528;19.760;2022-07-11T09:02:02;100588.20;;;22.40
67501;BMP180;54349;52.528;19.760;2022-07-11T09:04:31;100592.60;;;22.42
67501;BMP180;54349;52.528;19.760;2022-07-11T09:07:01;100596.80;;;22.60
67501;BMP180;54349;52.528;19.760;2022-07-11T09:09:30;100605.00;;;22.60
67501;BMP180;54349;52.528;19.760;2022-07-11T09:11:58;100606.80;;;22.40
67501;BMP180;54349;52.528;19.760;2022-07-11T09:14:30;100612.20;;;22.40
67501;BMP180;54349;52.528;19.760;2022-07-11T09:17:02;100611.80;;;22.60
67501;BMP180;54349;52.528;19.760;2022-07-11T09:19:36;100614.20;;;22.62
67501;BMP180;54349;52.528;19.760;2022-07-11T09:22:13;100615.60;;;22.42
67501;BMP180;54349;52.528;19.760;2022-07-11T09:25:09;100614.80;;;22.40
67501;BMP180;54349;52.528;19.760;2022-07-11T09:28:08;100613.80;;;22.60
67501;BMP180;54349;52.528;19.760;2022-07-11T09:30:39;100610.20;;;22.60
67501;BMP180;54349;52.528;19.760;2022-07-11T09:33:11;100612.60;;;22.46
67501;BMP180;54349;52.528;19.760;2022-07-11T09:35:43;100613.40;;;22.54
67501;BMP180;54349;52.528;19.760;2022-07-11T09:38:16;100608.00;;;22.70
67501;BMP180;54349;52.528;19.760;2022-07-11T09:40:47;100603.80;;;22.70
67501;BMP180;54349;52.528;19.760;2022-07-11T09:43:25;100604.20;;;22.50
67501;BMP180;54349;52.528;19.760;2022-07-11T09:46:05;100603.40;;;22.44
67501;BMP180;54349;52.528;19.760;2022-07-11T09:48:34;100597.40;;;22.60
67501;BMP180;54349;52.528;19.760;2022-07-11T09:51:02;100600.40;;;22.72
67501;BMP180;54349;52.528;19.760;2022-07-11T09:53:32;100589.80;;;22.60
67501;BMP180;54349;52.528;19.760;2022-07-11T09:56:01;100588.00;;;22.34
67501;BMP180;54349;52.528;19.760;2022-07-11T09:58:29;100585.00;;;22.16
67501;BMP180;54349;52.528;19.760;2022-07-11T10:00:59;100579.60;;;22.18
67501;BMP180;54349;52.528;19.760;2022-07-11T10:03:29;100571.00;;;22.30
67501;BMP180;54349;52.528;19.760;2022-07-11T10:06:17;100567.60;;;22.50
67501;BMP180;54349;52.528;19.760;2022-07-11T10:08:45;100569.40;;;22.40
67501;BMP180;54349;52.528;19.760;2022-07-11T10:11:14;100577.40;;;22.20
67501;BMP180;54349;52.528;19.760;2022-07-11T10:13:43;100570.00;;;22.00
67501;BMP180;54349;52.528;19.760;2022-07-11T10:16:57;100576.80;;;22.00
67501;BMP180;54349;52.528;19.760;2022-07-11T10:19:47;100585.80;;;22.26
67501;BMP180;54349;52.528;19.760;2022-07-11T10:22:35;100581.60;;;22.40
67501;BMP180;54349;52.528;19.760;2022-07-11T10:28:43;100573.00;;;22.00
67501;BMP180;54349;52.528;19.760;2022-07-11T10:31:32;100575.00;;;21.90
67501;BMP180;54349;52.528;19.760;2022-07-11T10:34:27;100575.80;;;22.10
67501;BMP180;54349;52.528;19.760;2022-07-11T10:37:01;100589.80;;;22.30
67501;BMP180;54349;52.528;19.760;2022-07-11T10:39:32;100596.80;;;22.30
67501;BMP180;54349;52.528;19.760;2022-07-11T10:42:06;100606.40;;;22.10
67501;BMP180;54349;52.528;19.760;2022-07-11T10:44:53;100610.20;;;22.00
67501;BMP180;54349;52.528;19.760;2022-07-11T10:47:44;100619.20;;;22.10
67501;BMP180;54349;52.528;19.760;2022-07-11T10:50:35;100617.80;;;22.30
67501;BMP180;54349;52.528;19.760;2022-07-11T10:53:20;100619.20;;;22.22
67501;BMP180;54349;52.528;19.760;2022-07-11T10:56:47;100614.60;;;22.20
67501;BMP180;54349;52.528;19.760;2022-07-11T10:59:22;100606.40;;;22.40
67501;BMP180;54349;52.528;19.760;2022-07-11T11:02:08;100611.00;;;22.50
67501;BMP180;54349;52.528;19.760;2022-07-11T11:07:38;100608.20;;;22.50
67501;BMP180;54349;52.528;19.760;2022-07-11T11:15:52;100616.60;;;22.40
67501;BMP180;54349;52.528;19.760;2022-07-11T11:23:43;100606.40;;;22.60
67501;BMP180;54349;52.528;19.760;2022-07-11T11:26:20;100612.40;;;22.40
67501;BMP180;54349;52.528;19.760;2022-07-11T11:29:05;100608.40;;;22.30
67501;BMP180;54349;52.528;19.760;2022-07-11T11:31:34;100616.80;;;22.40
67501;BMP180;54349;52.528;19.760;2022-07-11T11:34:04;100622.40;;;22.60
67501;BMP180;54349;52.528;19.760;2022-07-11T11:36:32;100626.80;;;22.70
67501;BMP180;54349;52.528;19.760;2022-07-11T11:39:00;100631.80;;;22.50
67501;BMP180;54349;52.528;19.760;2022-07-11T11:41:30;100637.40;;;22.30
67501;BMP180;54349;52.528;19.760;2022-07-11T11:44:01;100649.20;;;22.20
67501;BMP180;54349;52.528;19.760;2022-07-11T11:46:32;100667.80;;;22.30
67501;BMP180;54349;52.528;19.760;2022-07-11T11:49:05;100678.20;;;22.50
67501;BMP180;54349;52.528;19.760;2022-07-11T11:51:33;100683.20;;;22.60
67501;BMP180;54349;52.528;19.760;2022-07-11T11:54:02;100680.20;;;22.44
67501;BMP180;54349;52.528;19.760;2022-07-11T11:56:34;100681.00;;;22.48
67501;BMP180;54349;52.528;19.760;2022-07-11T11:59:07;100674.00;;;22.60
67501;BMP180;54349;52.528;19.760;2022-07-11T12:01:47;100675.60;;;22.70
67501;BMP180;54349;52.528;19.760;2022-07-11T12:04:16;100672.20;;;22.56
67501;BMP180;54349;52.528;19.760;2022-07-11T12:06:47;100671.40;;;22.60
67501;BMP180;54349;52.528;19.760;2022-07-11T12:09:21;100675.20;;;22.78
67501;BMP180;54349;52.528;19.760;2022-07-11T12:12:22;100670.00;;;22.70
67501;BMP180;54349;52.528;19.760;2022-07-11T12:15:41;100673.80;;;22.60
67501;BMP180;54349;52.528;19.760;2022-07-11T12:18:28;100681.20;;;22.80
67501;BMP180;54349;52.528;19.760;2022-07-11T12:21:10;100675.20;;;22.80
67501;BMP180;54349;52.528;19.760;2022-07-11T12:23:39;100672.20;;;22.60
67501;BMP180;54349;52.528;19.760;2022-07-11T12:26:07;100672.00;;;22.60
67501;BMP180;54349;52.528;19.760;2022-07-11T12:29:06;100670.80;;;22.80
67501;BMP180;54349;52.528;19.760;2022-07-11T12:34:23;100656.20;;;22.70
67501;BMP180;54349;52.528;19.760;2022-07-11T12:37:11;100658.60;;;22.80
67501;BMP180;54349;52.528;19.760;2022-07-11T12:45:06;100656.40;;;22.60
67501;BMP180;54349;52.528;19.760;2022-07-11T12:47:43;100653.00;;;22.70
67501;BMP180;54349;52.528;19.760;2022-07-11T12:50:17;100658.40;;;22.86
67501;BMP180;54349;52.528;19.760;2022-07-11T12:52:49;100658.40;;;22.80
67501;BMP180;54349;52.528;19.760;2022-07-11T12:55:32;100656.20;;;22.62
67501;BMP180;54349;52.528;19.760;2022-07-11T12:58:07;100655.60;;;22.40
67501;BMP180;54349;52.528;19.760;2022-07-11T13:00:38;100654.60;;;22.44
67501;BMP180;54349;52.528;19.760;2022-07-11T13:03:08;100654.00;;;22.64
67501;BMP180;54349;52.528;19.760;2022-07-11T13:05:57;100650.20;;;22.76
67501;BMP180;54349;52.528;19.760;2022-07-11T13:08:32;100652.20;;;22.60
67501;BMP180;54349;52.528;19.760;2022-07-11T13:11:19;100648.20;;;22.40
67501;BMP180;54349;52.528;19.760;2022-07-11T13:13:49;100640.80;;;22.30
67501;BMP180;54349;52.528;19.760;2022-07-11T13:16:19;100643.80;;;22.42
67501;BMP180;54349;52.528;19.760;2022-07-11T13:18:47;100632.00;;;22.62
67501;BMP180;54349;52.528;19.760;2022-07-11T13:21:18;100638.80;;;22.70
67501;BMP180;54349;52.528;19.760;2022-07-11T13:23:46;100636.80;;;22.60
67501;BMP180;54349;52.528;19.760;2022-07-11T13:26:15;100640.80;;;22.48
67501;BMP180;54349;52.528;19.760;2022-07-11T13:28:43;100633.00;;;22.30
67501;BMP180;54349;52.528;19.760;2022-07-11T13:31:11;100627.00;;;22.40
67501;BMP180;54349;52.528;19.760;2022-07-11T13:33:43;100624.00;;;22.62
67501;BMP180;54349;52.528;19.760;2022-07-11T13:36:11;100627.00;;;22.80
67501;BMP180;54349;52.528;19.760;2022-07-11T13:38:39;100629.60;;;22.70
67501;BMP180;54349;52.528;19.760;2022-07-11T13:41:08;100633.40;;;22.50
67501;BMP180;54349;52.528;19.760;2022-07-11T13:43:44;100632.80;;;22.36
67501;BMP180;54349;52.528;19.760;2022-07-11T13:46:13;100640.20;;;22.30
67501;BMP180;54349;52.528;19.760;2022-07-11T13:48:42;100647.20;;;22.40
67501;BMP180;54349;52.528;19.760;2022-07-11T13:51:10;100645.40;;;22.60
67501;BMP180;54349;52.528;19.760;2022-07-11T13:53:40;100648.80;;;22.60
67501;BMP180;54349;52.528;19.760;2022-07-11T13:56:08;100646.40;;;22.42
67501;BMP180;54349;52.528;19.760;2022-07-11T13:58:37;100638.60;;;22.30
67501;BMP180;54349;52.528;19.760;2022-07-11T14:01:06;100632.60;;;22.20
67501;BMP180;54349;52.528;19.760;2022-07-11T14:03:38;100629.80;;;22.30
67501;BMP180;54349;52.528;19.760;2022-07-11T14:06:09;100627.20;;;22.52
67501;BMP180;54349;52.528;19.760;2022-07-11T14:08:39;100628.20;;;22.60
67501;BMP180;54349;52.528;19.760;2022-07-11T14:11:08;100636.20;;;22.40
67501;BMP180;54349;52.528;19.760;2022-07-11T14:13:38;100644.40;;;22.30
67501;BMP180;54349;52.528;19.760;2022-07-11T14:16:10;100655.40;;;22.20
67501;BMP180;54349;52.528;19.760;2022-07-11T14:18:55;100659.60;;;22.20
67501;BMP180;54349;52.528;19.760;2022-07-11T14:21:24;100656.00;;;22.40
67501;BMP180;54349;52.528;19.760;2022-07-11T14:23:54;100665.60;;;22.60
67501;BMP180;54349;52.528;19.760;2022-07-11T14:26:25;100667.00;;;22.60
67501;BMP180;54349;52.528;19.760;2022-07-11T14:28:56;100665.80;;;22.40
67501;BMP180;54349;52.528;19.760;2022-07-11T14:31:34;100670.40;;;22.20
67501;BMP180;54349;52.528;19.760;2022-07-11T14:34:05;100671.40;;;22.00
67501;BMP180;54349;52.528;19.760;2022-07-11T14:36:33;100669.60;;;22.10